createdAt,value
2017-05-26T00:01:22.651Z,5.55
2017-05-26T00:03:51.149Z,8.43
2017-05-26T00:06:19.698Z,5.85
2017-05-26T00:08:48.199Z,5.53
2017-05-26T00:11:16.704Z,6.15
2017-05-26T00:13:46.318Z,6.78
2017-05-26T00:16:14.816Z,6.27
2017-05-26T00:18:43.377Z,6.40
2017-05-26T00:21:11.920Z,6.25
2017-05-26T00:23:40.421Z,7.20
2017-05-26T00:26:08.920Z,6.75
2017-05-26T00:28:37.469Z,7.45
2017-05-26T00:31:05.962Z,6.98
2017-05-26T00:33:34.464Z,9.52
2017-05-26T00:36:03.004Z,8.17
2017-05-26T00:38:31.504Z,8.92
2017-05-26T00:41:00.016Z,8.22
2017-05-26T00:43:27.799Z,9.17
2017-05-26T00:45:56.303Z,9.15
2017-05-26T00:48:24.823Z,9.33
2017-05-26T00:50:53.357Z,8.83
2017-05-26T00:53:21.861Z,9.63
2017-05-26T00:55:50.362Z,8.95
2017-05-26T00:58:18.978Z,10.40
2017-05-26T01:00:47.479Z,10.40
2017-05-26T01:03:16.003Z,11.25
2017-05-26T01:05:44.625Z,11.72
2017-05-26T01:08:13.152Z,11.85
2017-05-26T01:10:41.661Z,11.65
2017-05-26T01:13:10.237Z,12.50
2017-05-26T01:15:38.739Z,14.05
2017-05-26T01:18:07.246Z,11.90
2017-05-26T01:20:35.823Z,14.57
2017-05-26T01:23:04.329Z,14.95
2017-05-26T01:25:32.828Z,15.33
2017-05-26T01:28:01.398Z,13.95
2017-05-26T01:30:29.913Z,13.83
2017-05-26T01:32:58.499Z,15.72
2017-05-26T01:35:27.078Z,14.93
2017-05-26T01:37:55.696Z,16.38
2017-05-26T01:40:25.228Z,16.63
2017-05-26T01:42:53.788Z,16.52
2017-05-26T01:45:22.327Z,18.02
2017-05-26T01:47:50.834Z,15.83
2017-05-26T01:50:19.393Z,15.50
2017-05-26T01:52:47.921Z,15.92
2017-05-26T01:55:16.427Z,18.43
2017-05-26T01:57:44.979Z,16.77
2017-05-26T02:00:13.487Z,17.62
2017-05-26T02:02:41.992Z,15.63
2017-05-26T02:05:10.539Z,16.90
2017-05-26T02:07:39.045Z,16.30
2017-05-26T02:10:07.573Z,15.80
2017-05-26T02:12:36.121Z,16.80
2017-05-26T02:15:04.626Z,16.97
2017-05-26T02:17:33.133Z,16.67
2017-05-26T02:20:01.679Z,15.90
2017-05-26T02:22:30.184Z,17.75
2017-05-26T02:24:58.693Z,16.93
2017-05-26T02:27:27.261Z,16.60
2017-05-26T02:29:55.768Z,16.58
2017-05-26T02:32:24.277Z,16.07
2017-05-26T02:34:52.844Z,13.80
2017-05-26T02:37:21.352Z,15.10
2017-05-26T02:39:49.861Z,12.60
2017-05-26T02:42:18.437Z,13.10
2017-05-26T02:44:46.947Z,12.20
2017-05-26T02:47:15.455Z,12.13
2017-05-26T02:49:44.019Z,11.82
2017-05-26T02:52:12.539Z,11.87
2017-05-26T02:54:41.043Z,11.77
2017-05-26T02:57:09.607Z,11.23
2017-05-26T02:59:38.119Z,10.65
2017-05-26T03:02:06.622Z,9.52
2017-05-26T03:04:35.188Z,10.20
2017-05-26T03:07:03.701Z,11.55
2017-05-26T03:09:32.205Z,9.83
2017-05-26T03:12:00.740Z,10.97
2017-05-26T03:14:29.301Z,12.58
2017-05-26T03:16:57.810Z,12.63
2017-05-26T03:19:26.314Z,12.48
2017-05-26T03:21:54.854Z,11.88
2017-05-26T03:24:23.361Z,12.37
2017-05-26T03:26:51.933Z,12.68
2017-05-26T03:29:20.436Z,12.13
2017-05-26T03:31:48.941Z,10.57
2017-05-26T03:34:17.484Z,10.65
2017-05-26T03:36:45.999Z,10.90
2017-05-26T03:39:14.575Z,10.75
2017-05-26T03:41:43.081Z,10.53
2017-05-26T03:44:11.600Z,10.43
2017-05-26T03:46:40.180Z,10.27
2017-05-26T03:49:08.709Z,11.02
2017-05-26T03:51:37.223Z,11.82
2017-05-26T03:54:05.771Z,10.15
2017-05-26T03:56:34.276Z,11.25
2017-05-26T03:59:02.858Z,9.97
2017-05-26T04:01:31.363Z,9.90
2017-05-26T04:03:59.870Z,9.88
2017-05-26T04:06:28.420Z,8.13
2017-05-26T04:08:56.945Z,8.48
2017-05-26T04:11:25.484Z,9.12
2017-05-26T04:13:53.997Z,9.42
2017-05-26T04:16:22.561Z,9.17
2017-05-26T04:18:51.064Z,9.80
2017-05-26T04:21:19.566Z,9.12
2017-05-26T04:23:48.109Z,7.87
2017-05-26T04:26:16.607Z,7.78
2017-05-26T04:28:45.167Z,8.10
2017-05-26T04:31:13.682Z,8.13
2017-05-26T04:33:42.189Z,9.47
2017-05-26T04:36:10.727Z,8.17
2017-05-26T04:38:39.231Z,7.95
2017-05-26T04:41:07.803Z,8.62
2017-05-26T04:43:36.305Z,8.45
2017-05-26T04:46:04.825Z,9.63
2017-05-26T04:48:33.371Z,11.05
2017-05-26T04:51:01.885Z,10.33
2017-05-26T04:53:30.460Z,10.63
2017-05-26T04:55:58.968Z,12.22
2017-05-26T04:58:27.484Z,10.13
2017-05-26T05:00:56.016Z,8.65
2017-05-26T05:03:24.520Z,9.33
2017-05-26T05:05:53.084Z,8.67
2017-05-26T05:08:21.586Z,7.63
2017-05-26T05:10:50.149Z,7.30
2017-05-26T05:13:18.686Z,8.37
2017-05-26T05:15:47.187Z,7.60
2017-05-26T05:18:15.746Z,7.28
2017-05-26T05:20:44.249Z,7.80
2017-05-26T05:23:12.752Z,7.58
2017-05-26T05:25:41.275Z,6.25
2017-05-26T05:28:09.785Z,6.42
2017-05-26T05:30:38.340Z,6.33
2017-05-26T05:33:06.838Z,6.90
2017-05-26T05:35:35.351Z,6.92
2017-05-26T05:38:03.887Z,8.27
2017-05-26T05:40:32.391Z,6.18
2017-05-26T05:43:00.968Z,6.98
2017-05-26T05:45:29.479Z,7.25
2017-05-26T05:47:57.988Z,6.90
2017-05-26T05:50:26.517Z,6.60
2017-05-26T05:52:55.021Z,7.20
2017-05-26T05:55:23.604Z,7.20
2017-05-26T05:57:52.112Z,6.50
2017-05-26T06:00:20.619Z,7.53
2017-05-26T06:02:49.182Z,7.33
2017-05-26T06:05:17.683Z,8.10
2017-05-26T06:07:46.227Z,8.60
2017-05-26T06:10:14.732Z,7.38
2017-05-26T06:12:43.294Z,7.74
2017-05-26T06:15:11.836Z,9.42
2017-05-26T06:17:40.344Z,8.74
2017-05-26T06:20:08.891Z,7.72
2017-05-26T06:22:37.391Z,6.78
2017-05-26T06:25:05.891Z,6.50
2017-05-26T06:27:34.429Z,9.04
2017-05-26T06:30:02.935Z,7.60
2017-05-26T06:32:31.480Z,7.82
2017-05-26T06:35:00.005Z,7.36
2017-05-26T06:37:28.505Z,6.42
2017-05-26T06:39:57.038Z,7.58
2017-05-26T06:42:25.538Z,6.72
2017-05-26T06:44:54.087Z,7.38
2017-05-26T06:47:22.588Z,6.06
2017-05-26T06:49:51.085Z,6.54
2017-05-26T06:52:19.611Z,7.66
2017-05-26T06:54:48.122Z,8.76
2017-05-26T06:57:16.660Z,6.68
2017-05-26T06:59:45.192Z,10.06
2017-05-26T07:02:13.703Z,7.64
2017-05-26T07:04:42.250Z,7.32
2017-05-26T07:07:10.762Z,10.66
2017-05-26T07:09:39.333Z,6.72
2017-05-26T07:12:07.837Z,8.24
2017-05-26T07:14:36.443Z,7.96
2017-05-26T07:17:04.971Z,7.06
2017-05-26T07:19:33.475Z,7.82
2017-05-26T07:22:02.011Z,7.98
2017-05-26T07:24:30.517Z,6.78
2017-05-26T07:26:59.021Z,6.44
2017-05-26T07:29:27.555Z,6.84
2017-05-26T07:31:56.057Z,5.86
2017-05-26T07:34:24.600Z,6.68
2017-05-26T07:36:53.108Z,7.06
2017-05-26T07:39:21.607Z,6.18
2017-05-26T07:41:50.139Z,5.52
2017-05-26T07:44:18.672Z,7.66
2017-05-26T07:46:47.216Z,6.80
2017-05-26T07:49:15.721Z,5.92
2017-05-26T07:51:44.217Z,5.78
2017-05-26T07:54:12.759Z,6.17
2017-05-26T07:56:41.263Z,5.63
2017-05-26T07:59:09.798Z,6.76
2017-05-26T08:01:38.305Z,4.24
2017-05-26T08:04:06.807Z,4.72
2017-05-26T08:06:35.335Z,4.50
2017-05-26T08:09:03.864Z,3.68
2017-05-26T08:11:32.404Z,3.60
2017-05-26T08:14:00.908Z,4.16
2017-05-26T08:16:29.481Z,5.36
2017-05-26T08:18:58.025Z,4.80
2017-05-26T08:21:26.532Z,4.36
2017-05-26T08:23:55.081Z,3.92
2017-05-26T08:26:23.592Z,3.58
2017-05-26T08:28:52.096Z,2.80
2017-05-26T08:31:20.633Z,2.76
2017-05-26T08:33:49.144Z,3.30
2017-05-26T08:36:17.694Z,2.93
2017-05-26T08:38:46.210Z,3.08
2017-05-26T08:41:14.717Z,3.10
2017-05-26T08:43:43.252Z,3.08
2017-05-26T08:46:11.757Z,3.10
2017-05-26T08:48:40.301Z,3.10
2017-05-26T08:51:08.803Z,3.30
2017-05-26T08:53:37.304Z,3.76
2017-05-26T08:56:05.832Z,2.78
2017-05-26T08:58:34.335Z,3.18
2017-05-26T09:01:02.871Z,2.34
2017-05-26T09:03:31.373Z,2.58
2017-05-26T09:05:59.876Z,2.84
2017-05-26T09:08:28.412Z,2.82
2017-05-26T09:10:56.914Z,2.80
2017-05-26T09:13:25.459Z,3.70
2017-05-26T09:15:53.963Z,3.45
2017-05-26T09:18:22.523Z,2.23
2017-05-26T09:20:51.057Z,2.98
2017-05-26T09:23:19.565Z,2.58
2017-05-26T09:25:48.109Z,3.50
2017-05-26T09:28:16.607Z,2.42
2017-05-26T09:30:45.108Z,1.88
2017-05-26T09:33:13.640Z,2.65
2017-05-26T09:35:42.172Z,3.32
2017-05-26T09:38:10.728Z,2.30
2017-05-26T09:40:39.225Z,2.68
2017-05-26T09:43:07.731Z,2.87
2017-05-26T09:45:36.256Z,2.73
2017-05-26T09:48:04.761Z,3.15
2017-05-26T09:50:33.292Z,3.53
2017-05-26T09:53:01.787Z,3.25
2017-05-26T09:55:30.289Z,2.60
2017-05-26T09:57:58.822Z,2.62
2017-05-26T10:00:27.321Z,2.62
2017-05-26T10:02:55.860Z,3.42
2017-05-26T10:05:24.355Z,2.80
2017-05-26T10:07:52.855Z,3.10
2017-05-26T10:10:21.385Z,2.73
2017-05-26T10:12:49.888Z,2.62
2017-05-26T10:15:18.430Z,3.10
2017-05-26T10:17:46.945Z,2.10
2017-05-26T10:20:15.499Z,2.68
2017-05-26T10:22:44.032Z,2.75
2017-05-26T10:25:12.523Z,3.53
2017-05-26T10:27:41.062Z,2.47
2017-05-26T10:30:09.568Z,2.85
2017-05-26T10:32:38.098Z,2.38
2017-05-26T10:35:06.632Z,2.35
2017-05-26T10:37:35.137Z,2.72
2017-05-26T10:40:03.680Z,2.48
2017-05-26T10:42:32.185Z,2.58
2017-05-26T10:45:00.688Z,2.90
2017-05-26T10:47:29.233Z,2.40
2017-05-26T10:49:57.740Z,3.23
2017-05-26T10:52:26.284Z,2.23
2017-05-26T10:54:54.784Z,2.35
2017-05-26T10:57:23.285Z,2.72
2017-05-26T10:59:51.816Z,2.35
2017-05-26T11:02:20.316Z,2.93
2017-05-26T11:04:48.851Z,2.90
2017-05-26T11:07:17.353Z,1.78
2017-05-26T11:09:45.851Z,2.72
2017-05-26T11:12:14.395Z,2.35
2017-05-26T11:14:42.896Z,2.43
2017-05-26T11:17:11.396Z,3.07
2017-05-26T11:19:39.922Z,2.50
2017-05-26T11:22:08.422Z,2.57
2017-05-26T11:24:36.926Z,2.50
2017-05-26T11:27:05.456Z,2.55
2017-05-26T11:29:33.965Z,2.10
2017-05-26T11:32:02.465Z,2.55
2017-05-26T11:34:30.997Z,2.52
2017-05-26T11:36:58.736Z,1.82
2017-05-26T11:39:27.236Z,2.77
2017-05-26T11:41:55.765Z,2.40
2017-05-26T11:44:24.261Z,1.87
2017-05-26T11:46:52.765Z,2.15
2017-05-26T11:49:21.300Z,2.52
2017-05-26T11:51:49.809Z,3.25
2017-05-26T11:54:18.315Z,3.28
2017-05-26T11:56:46.843Z,2.70
2017-05-26T11:59:15.345Z,2.52
2017-05-26T12:01:43.848Z,2.68
2017-05-26T12:04:12.385Z,2.33
2017-05-26T12:06:40.880Z,2.67
2017-05-26T12:09:09.379Z,2.53
2017-05-26T12:11:37.915Z,2.22
2017-05-26T12:14:06.417Z,3.78
2017-05-26T12:16:34.956Z,2.52
2017-05-26T12:19:03.484Z,2.82
2017-05-26T12:21:31.993Z,2.78
2017-05-26T12:24:00.521Z,2.83
2017-05-26T12:26:29.032Z,2.77
2017-05-26T12:28:56.768Z,2.37
2017-05-26T12:31:25.291Z,2.62
2017-05-26T12:33:53.787Z,2.30
2017-05-26T12:36:22.322Z,2.52
2017-05-26T12:38:50.832Z,2.70
2017-05-26T12:41:19.333Z,2.52
2017-05-26T12:43:47.859Z,2.18
2017-05-26T12:46:16.360Z,1.95
2017-05-26T12:48:44.921Z,2.82
2017-05-26T12:51:13.419Z,3.02
2017-05-26T12:53:41.917Z,2.68
2017-05-26T12:56:10.445Z,2.57
2017-05-26T12:58:38.948Z,3.92
2017-05-26T13:01:07.491Z,2.95
2017-05-26T13:03:35.991Z,2.30
2017-05-26T13:06:04.495Z,2.53
2017-05-26T13:08:33.034Z,3.55
2017-05-26T13:11:01.542Z,2.37
2017-05-26T13:13:30.084Z,2.52
2017-05-26T13:15:58.592Z,3.13
2017-05-26T13:18:27.096Z,2.45
2017-05-26T13:20:55.628Z,2.68
2017-05-26T13:23:24.132Z,2.43
2017-05-26T13:25:52.663Z,2.33
2017-05-26T13:28:21.177Z,3.22
2017-05-26T13:30:49.683Z,2.27
2017-05-26T13:33:18.210Z,2.75
2017-05-26T13:35:46.720Z,2.98
2017-05-26T13:38:15.267Z,3.45
2017-05-26T13:40:43.769Z,2.95
2017-05-26T13:43:12.269Z,2.75
2017-05-26T13:45:40.816Z,3.38
2017-05-26T13:48:09.323Z,3.13
2017-05-26T13:50:37.859Z,3.48
2017-05-26T13:53:06.356Z,3.43
2017-05-26T13:55:34.861Z,2.58
2017-05-26T13:58:02.624Z,2.95
2017-05-26T14:00:31.131Z,2.92
2017-05-26T14:02:59.679Z,3.28
2017-05-26T14:05:28.188Z,2.50
2017-05-26T14:07:56.692Z,3.57
2017-05-26T14:10:25.219Z,3.30
2017-05-26T14:12:53.720Z,4.58
2017-05-26T14:15:22.265Z,3.07
2017-05-26T14:17:50.761Z,2.40
2017-05-26T14:20:19.265Z,3.60
2017-05-26T14:22:47.793Z,3.32
2017-05-26T14:25:16.299Z,3.13
2017-05-26T14:27:44.848Z,3.32
2017-05-26T14:30:13.352Z,3.28
2017-05-26T14:32:41.847Z,2.93
2017-05-26T14:35:10.379Z,2.60
2017-05-26T14:37:38.876Z,3.10
2017-05-26T14:40:07.419Z,3.67
2017-05-26T14:42:35.920Z,3.98
2017-05-26T14:45:04.417Z,3.27
2017-05-26T14:47:32.952Z,3.45
2017-05-26T14:50:01.469Z,3.45
2017-05-26T14:52:30.012Z,2.95
2017-05-26T14:54:58.521Z,3.03
2017-05-26T14:57:27.025Z,3.68
2017-05-26T14:59:55.556Z,2.67
2017-05-26T15:02:24.069Z,3.05
2017-05-26T15:04:52.603Z,3.28
2017-05-26T15:07:21.111Z,3.05
2017-05-26T15:09:49.616Z,2.58
2017-05-26T15:12:18.145Z,2.78
2017-05-26T15:14:46.640Z,3.17
2017-05-26T15:17:15.176Z,2.82
2017-05-26T15:19:43.685Z,2.73
2017-05-26T15:22:12.184Z,3.33
2017-05-26T15:24:40.712Z,2.62
2017-05-26T15:27:09.212Z,3.73
2017-05-26T15:29:37.748Z,3.67
2017-05-26T15:32:06.298Z,2.97
2017-05-26T15:34:34.799Z,2.92
2017-05-26T15:37:03.332Z,3.02
2017-05-26T15:39:31.832Z,3.53
2017-05-26T15:42:01.296Z,3.42
2017-05-26T15:44:29.795Z,3.33
2017-05-26T15:46:58.292Z,3.92
2017-05-26T15:49:26.819Z,3.57
2017-05-26T15:51:55.312Z,3.58
2017-05-26T15:54:23.859Z,3.68
2017-05-26T15:56:52.382Z,3.25
2017-05-26T15:59:20.892Z,3.20
2017-05-26T16:01:50.141Z,3.68
2017-05-26T16:04:18.678Z,3.63
2017-05-26T16:06:47.224Z,3.10
2017-05-26T16:09:15.729Z,3.28
2017-05-26T16:11:44.228Z,3.47
2017-05-26T16:14:12.764Z,4.15
2017-05-26T16:16:41.321Z,3.28
2017-05-26T16:19:09.946Z,2.90
2017-05-26T16:21:38.461Z,3.10
2017-05-26T16:24:06.964Z,3.65
2017-05-26T16:26:35.504Z,3.67
2017-05-26T16:29:04.001Z,2.98
2017-05-26T16:31:32.535Z,3.42
2017-05-26T16:34:01.042Z,3.33
2017-05-26T16:36:29.539Z,3.63
2017-05-26T16:38:58.076Z,3.48
2017-05-26T16:41:26.578Z,3.30
2017-05-26T16:43:55.114Z,2.87
2017-05-26T16:46:23.661Z,3.02
2017-05-26T16:48:52.163Z,2.82
2017-05-26T16:51:20.693Z,4.18
2017-05-26T16:53:49.217Z,3.90
2017-05-26T16:56:17.779Z,3.22
2017-05-26T16:58:46.284Z,3.70
2017-05-26T17:01:15.814Z,3.73
2017-05-26T17:03:44.357Z,4.02
2017-05-26T17:06:12.861Z,4.75
2017-05-26T17:08:41.383Z,3.57
2017-05-26T17:11:09.883Z,3.58
2017-05-26T17:13:38.415Z,4.10
2017-05-26T17:16:06.931Z,4.12
2017-05-26T17:18:35.471Z,3.45
2017-05-26T17:21:03.976Z,4.05
2017-05-26T17:23:32.485Z,3.98
2017-05-26T17:26:01.015Z,4.20
2017-05-26T17:28:29.511Z,4.17
2017-05-26T17:30:58.052Z,3.80
2017-05-26T17:33:26.551Z,4.53
2017-05-26T17:35:55.059Z,4.80
2017-05-26T17:38:23.589Z,4.88
2017-05-26T17:40:53.020Z,5.95
2017-05-26T17:43:21.589Z,5.62
2017-05-26T17:45:50.108Z,6.27
2017-05-26T17:48:18.611Z,6.33
2017-05-26T17:50:47.143Z,5.85
2017-05-26T17:53:15.644Z,6.43
2017-05-26T17:55:44.187Z,6.77
2017-05-26T17:58:12.691Z,6.10
2017-05-26T18:00:41.192Z,7.45
2017-05-26T18:03:09.791Z,7.40
2017-05-26T18:05:38.297Z,5.98
2017-05-26T18:08:06.839Z,6.53
2017-05-26T18:10:35.340Z,6.13
2017-05-26T18:13:03.845Z,6.12
2017-05-26T18:15:32.379Z,6.28
2017-05-26T18:18:00.883Z,6.53
2017-05-26T18:20:29.426Z,5.27
2017-05-26T18:22:57.927Z,5.72
2017-05-26T18:25:26.431Z,6.13
2017-05-26T18:27:54.967Z,5.50
2017-05-26T18:30:23.468Z,4.68
2017-05-26T18:32:52.013Z,5.72
2017-05-26T18:35:20.520Z,5.40
2017-05-26T18:37:49.024Z,6.00
2017-05-26T18:40:17.576Z,6.53
2017-05-26T18:42:46.075Z,7.22
2017-05-26T18:45:14.616Z,6.68
2017-05-26T18:47:43.120Z,6.33
2017-05-26T18:50:11.614Z,7.07
2017-05-26T18:52:40.143Z,6.00
2017-05-26T18:55:08.644Z,5.92
2017-05-26T18:57:37.188Z,6.72
2017-05-26T19:00:05.686Z,6.02
2017-05-26T19:02:34.641Z,5.93
2017-05-26T19:05:03.171Z,5.93
2017-05-26T19:07:31.673Z,6.73
2017-05-26T19:10:00.212Z,6.60
2017-05-26T19:12:28.816Z,7.35
2017-05-26T19:14:57.353Z,6.57
2017-05-26T19:17:25.892Z,7.07
2017-05-26T19:19:54.402Z,7.13
2017-05-26T19:22:22.950Z,8.27
2017-05-26T19:24:51.554Z,7.67
2017-05-26T19:27:20.080Z,7.77
2017-05-26T19:29:48.622Z,8.57
2017-05-26T19:32:17.128Z,8.52
2017-05-26T19:34:45.687Z,8.03
2017-05-26T19:37:14.196Z,7.90
2017-05-26T19:39:42.698Z,7.97
2017-05-26T19:42:11.274Z,8.93
2017-05-26T19:44:39.776Z,7.87
2017-05-26T19:47:08.364Z,7.95
2017-05-26T19:49:36.868Z,6.40
2017-05-26T19:52:05.366Z,7.10
2017-05-26T19:54:33.905Z,6.77
2017-05-26T19:57:02.472Z,6.35
2017-05-26T19:59:31.018Z,6.72
2017-05-26T20:01:59.516Z,6.43
2017-05-26T20:04:28.017Z,6.67
2017-05-26T20:06:56.546Z,6.65
2017-05-26T20:09:25.050Z,7.00
2017-05-26T20:11:53.592Z,7.30
2017-05-26T20:14:22.105Z,7.23
2017-05-26T20:16:50.739Z,6.88
2017-05-26T20:19:19.278Z,6.95
2017-05-26T20:21:47.792Z,7.58
2017-05-26T20:24:16.343Z,7.60
2017-05-26T20:26:44.884Z,9.33
2017-05-26T20:29:13.393Z,8.35
2017-05-26T20:31:41.953Z,8.10
2017-05-26T20:34:10.467Z,6.72
2017-05-26T20:36:39.018Z,7.57
2017-05-26T20:39:07.525Z,7.43
2017-05-26T20:41:36.024Z,8.07
2017-05-26T20:44:04.557Z,8.60
2017-05-26T20:46:33.051Z,7.83
2017-05-26T20:49:01.599Z,8.32
2017-05-26T20:51:30.095Z,7.58
2017-05-26T20:53:58.600Z,7.82
2017-05-26T20:56:27.134Z,7.73
2017-05-26T20:58:55.666Z,8.30
2017-05-26T21:01:24.209Z,7.57
2017-05-26T21:03:52.712Z,8.17
2017-05-26T21:06:21.215Z,7.80
2017-05-26T21:08:49.745Z,7.10
2017-05-26T21:11:18.259Z,8.33
2017-05-26T21:13:46.800Z,8.70
2017-05-26T21:16:15.299Z,9.10
2017-05-26T21:18:43.803Z,9.63
2017-05-26T21:21:12.337Z,8.47
2017-05-26T21:23:40.835Z,8.60
2017-05-26T21:26:09.386Z,9.10
2017-05-26T21:28:37.900Z,9.33
2017-05-26T21:31:06.415Z,8.78
2017-05-26T21:33:34.948Z,7.87
2017-05-26T21:36:03.461Z,8.52
2017-05-26T21:38:32.003Z,8.87
2017-05-26T21:41:00.522Z,8.67
2017-05-26T21:43:29.072Z,10.18
2017-05-26T21:45:57.603Z,7.92
2017-05-26T21:48:26.106Z,8.48
2017-05-26T21:50:54.672Z,9.47
2017-05-26T21:53:23.197Z,9.35
2017-05-26T21:55:51.699Z,8.53
2017-05-26T21:58:20.231Z,7.32
2017-05-26T22:00:48.728Z,9.27
2017-05-26T22:03:16.504Z,10.32
2017-05-26T22:05:45.008Z,9.98
2017-05-26T22:08:14.525Z,10.38
2017-05-26T22:10:44.507Z,9.67
2017-05-26T22:13:13.028Z,9.77
2017-05-26T22:15:41.562Z,8.37
2017-05-26T22:18:10.074Z,11.48
2017-05-26T22:20:38.581Z,9.27
2017-05-26T22:23:06.351Z,9.40
2017-05-26T22:25:34.851Z,9.35
2017-05-26T22:28:03.382Z,9.90
2017-05-26T22:30:31.888Z,10.63
2017-05-26T22:33:00.388Z,10.45
2017-05-26T22:35:28.925Z,9.70
2017-05-26T22:37:57.432Z,9.08
2017-05-26T22:40:25.980Z,8.82
2017-05-26T22:42:54.476Z,9.63
2017-05-26T22:45:22.975Z,9.45
2017-05-26T22:47:51.517Z,9.43
2017-05-26T22:50:20.019Z,9.85
2017-05-26T22:52:48.563Z,10.08
2017-05-26T22:55:17.063Z,9.43
2017-05-26T22:57:45.568Z,9.42
2017-05-26T23:00:14.106Z,9.03
2017-05-26T23:02:42.610Z,9.50
2017-05-26T23:05:11.152Z,9.47
2017-05-26T23:07:39.653Z,9.07
2017-05-26T23:10:08.159Z,8.53
2017-05-26T23:12:36.696Z,10.62
2017-05-26T23:15:05.193Z,9.65
2017-05-26T23:17:33.734Z,9.87
2017-05-26T23:20:02.251Z,8.45
2017-05-26T23:22:30.755Z,9.62
2017-05-26T23:24:59.281Z,8.43
2017-05-26T23:27:27.784Z,7.75
2017-05-26T23:29:56.337Z,7.23
2017-05-26T23:32:24.845Z,7.95
2017-05-26T23:34:53.349Z,8.07
2017-05-26T23:37:21.896Z,8.25
2017-05-26T23:39:50.388Z,7.33
2017-05-26T23:42:18.922Z,8.97
2017-05-26T23:44:47.421Z,7.88
2017-05-26T23:47:15.917Z,8.22
2017-05-26T23:49:44.447Z,8.52
2017-05-26T23:52:12.958Z,7.08
2017-05-26T23:54:41.502Z,7.07
2017-05-26T23:57:10.009Z,7.03
2017-05-26T23:59:38.514Z,7.87
